Time;durP1;ratioP1;P1;durP2;ratioP2;P2;SDS_P1;SDS_P2;PMS_P1;PMS_P2;Temp;Humidity;BMP_temperature;BMP_pressure;BME280_temperature;BME280_humidity;BME280_pressure;Samples;Min_cycle;Max_cycle;Signal;HPM_P1;HPM_P2
2021/07/28 00:00:05;;;;;;;16.88;5.35;;;;;;;23.06;49.41;100564.09;5034271;28;20037;-75
2021/07/28 00:02:31;;;;;;;12.90;5.65;;;;;;;23.10;49.08;100567.66;5034137;28;20040;-74
2021/07/28 00:04:56;;;;;;;20.38;6.53;;;;;;;23.02;49.14;100564.09;5032979;28;20041;-74
2021/07/28 00:07:22;;;;;;;13.98;5.75;;;;;;;23.06;49.42;100567.66;5033963;28;20033;-75
2021/07/28 00:09:47;;;;;;;13.27;6.25;;;;;;;23.07;48.96;100563.69;5032857;28;20117;-77
2021/07/28 00:12:13;;;;;;;11.20;6.13;;;;;;;23.06;49.09;100553.72;5034131;28;20112;-75
2021/07/28 00:14:38;;;;;;;14.55;6.00;;;;;;;23.01;48.99;100556.94;5033954;28;20137;-75
2021/07/28 00:17:07;;;;;;;11.90;6.22;;;;;;;22.94;49.08;100554.94;5033957;28;20052;-75
2021/07/28 00:19:47;;;;;;;13.63;5.95;;;;;;;22.90;49.14;100556.97;5033872;28;20499;-75
2021/07/28 00:24:56;;;;;;;12.70;5.85;;;;;;;22.84;49.23;100549.38;5033936;28;20075;-76
2021/07/28 00:27:22;;;;;;;12.90;5.72;;;;;;;22.79;49.28;100541.41;5033830;28;20104;-75
2021/07/28 00:29:47;;;;;;;12.40;6.35;;;;;;;22.88;48.87;100548.19;5033845;28;20166;-74
2021/07/28 00:32:13;;;;;;;13.25;5.82;;;;;;;22.86;49.03;100538.66;5033663;28;20038;-75
2021/07/28 00:34:41;;;;;;;12.23;5.35;;;;;;;22.85;48.79;100537.88;5033647;28;20037;-75
2021/07/28 00:37:06;;;;;;;14.23;5.80;;;;;;;22.84;48.91;100532.66;5033385;28;20025;-75
2021/07/28 00:39:32;;;;;;;16.15;6.20;;;;;;;22.82;48.60;100523.91;5032379;28;20032;-75
2021/07/28 00:41:57;;;;;;;15.98;5.75;;;;;;;22.79;48.71;100519.13;5033254;28;20043;-76
2021/07/28 00:44:23;;;;;;;12.07;6.32;;;;;;;22.85;48.75;100523.13;5033516;28;20057;-74
2021/07/28 00:46:49;;;;;;;13.00;6.03;;;;;;;22.88;48.25;100522.31;5033297;28;20029;-74
2021/07/28 00:49:15;;;;;;;16.00;5.95;;;;;;;22.79;48.55;100514.38;5033370;28;20026;-75
2021/07/28 00:51:41;;;;;;;12.07;5.97;;;;;;;22.61;49.04;100511.63;5033343;28;20026;-74
2021/07/28 00:54:07;;;;;;;24.65;6.35;;;;;;;22.62;48.81;100507.63;5033267;28;20029;-75
2021/07/28 00:56:34;;;;;;;20.50;6.78;;;;;;;22.62;48.72;100502.06;5033257;28;20083;-78
2021/07/28 00:59:00;;;;;;;13.60;6.05;;;;;;;22.59;48.84;100494.50;5033199;28;20095;-75
2021/07/28 01:01:27;;;;;;;10.85;5.45;;;;;;;22.60;48.83;100495.31;5033144;28;20057;-75
2021/07/28 01:03:52;;;;;;;11.13;6.70;;;;;;;22.63;48.63;100495.31;5033123;28;20029;-75
2021/07/28 01:06:18;;;;;;;15.07;6.70;;;;;;;22.55;48.79;100490.94;5033118;28;20086;-74
2021/07/28 01:08:43;;;;;;;11.48;6.00;;;;;;;22.61;48.75;100499.69;5033026;28;20530;-75
2021/07/28 01:11:09;;;;;;;13.10;5.38;;;;;;;22.61;48.75;100492.13;5033025;28;20087;-74
2021/07/28 01:13:36;;;;;;;15.68;6.53;;;;;;;22.66;48.56;100490.91;5032996;28;20121;-74
2021/07/28 01:16:22;;;;;;;9.75;6.32;;;;;;;22.65;48.35;100492.91;5032886;28;20262;-75
2021/07/28 01:18:48;;;;;;;11.48;6.30;;;;;;;22.66;48.36;100480.56;5032863;28;20021;-74
2021/07/28 01:21:16;;;;;;;13.55;5.72;;;;;;;22.67;48.43;100476.59;5032726;28;20121;-74
2021/07/28 01:23:42;;;;;;;15.13;6.18;;;;;;;22.73;47.81;100478.97;5032832;28;20025;-75
2021/07/28 01:26:08;;;;;;;20.25;9.55;;;;;;;22.72;47.98;100483.75;5032816;28;20021;-79
2021/07/28 01:28:35;;;;;;;9.57;5.63;;;;;;;22.60;48.26;100473.84;5032804;28;20771;-75
2021/07/28 01:31:06;;;;;;;11.13;5.57;;;;;;;22.56;48.41;100480.59;5032829;28;20056;-75
2021/07/28 01:33:38;;;;;;;15.88;6.47;;;;;;;22.54;48.53;100475.44;5032272;28;20624;-74
2021/07/28 01:36:06;;;;;;;16.40;6.20;;;;;;;22.50;48.43;100466.28;5032687;28;20117;-74
2021/07/28 01:38:32;;;;;;;10.73;6.32;;;;;;;22.49;48.55;100461.91;5032538;28;20072;-75
2021/07/28 01:41:01;;;;;;;11.75;5.70;;;;;;;22.55;48.24;100453.97;5032540;28;20033;-75
2021/07/28 01:43:28;;;;;;;13.35;5.53;;;;;;;22.44;48.88;100456.75;5032588;28;20028;-75
2021/07/28 01:45:55;;;;;;;11.98;5.47;;;;;;;22.37;48.90;100451.22;5032497;28;20480;-75
2021/07/28 01:48:21;;;;;;;10.88;6.38;;;;;;;22.35;48.96;100453.59;5032479;28;20480;-74
2021/07/28 01:50:47;;;;;;;13.13;5.95;;;;;;;22.34;49.01;100455.56;5032469;28;20514;-74
2021/07/28 01:53:14;;;;;;;15.52;6.70;;;;;;;22.29;48.99;100450.44;5031207;28;20065;-75
2021/07/28 01:55:41;;;;;;;13.02;4.45;;;;;;;22.27;49.16;100449.22;5032420;28;20029;-74
2021/07/28 01:58:07;;;;;;;14.38;6.07;;;;;;;22.32;49.07;100446.03;5032363;28;20028;-75
2021/07/28 02:00:32;;;;;;;19.85;6.35;;;;;;;22.26;49.04;100447.63;5032432;28;20026;-74
2021/07/28 02:03:04;;;;;;;11.80;4.85;;;;;;;22.23;49.32;100440.09;5032307;28;20033;-75
2021/07/28 02:05:34;;;;;;;14.07;5.10;;;;;;;22.19;49.66;100437.31;5032380;28;20033;-75
2021/07/28 02:08:04;;;;;;;14.10;5.93;;;;;;;22.12;49.47;100432.53;5032270;28;20108;-75
2021/07/28 02:10:35;;;;;;;16.02;5.15;;;;;;;22.23;49.16;100426.19;5032232;28;20032;-74
2021/07/28 02:13:01;;;;;;;18.77;5.18;;;;;;;22.30;49.09;100418.63;5032305;28;20468;-76
2021/07/28 02:15:27;;;;;;;10.18;4.53;;;;;;;22.30;49.12;100423.41;5032284;28;20036;-75
2021/07/28 02:17:53;;;;;;;10.45;5.07;;;;;;;22.32;49.01;100418.22;5030049;28;20470;-76
2021/07/28 02:20:19;;;;;;;17.70;5.50;;;;;;;22.37;48.81;100417.81;5031570;28;20517;-75
2021/07/28 02:22:46;;;;;;;7.28;5.55;;;;;;;22.40;48.78;100414.22;5032211;28;20029;-75
2021/07/28 02:25:12;;;;;;;8.75;4.65;;;;;;;22.45;48.71;100418.59;5031010;28;20418;-75
2021/07/28 02:27:38;;;;;;;9.82;5.18;;;;;;;22.50;48.90;100418.97;5032217;28;20021;-75
2021/07/28 02:30:05;;;;;;;13.25;5.95;;;;;;;22.53;48.56;100406.25;5032138;28;20411;-75
2021/07/28 02:32:32;;;;;;;9.82;4.80;;;;;;;22.51;48.57;100412.19;5032168;28;20061;-74
2021/07/28 02:34:57;;;;;;;10.23;4.32;;;;;;;22.53;48.57;100407.03;5032140;28;20074;-74
2021/07/28 02:37:23;;;;;;;11.40;5.03;;;;;;;22.51;48.57;100412.19;5031853;28;20132;-79
2021/07/28 02:39:49;;;;;;;10.32;5.25;;;;;;;22.53;48.66;100411.81;5031807;28;20030;-76
2021/07/28 02:42:15;;;;;;;13.82;4.57;;;;;;;22.55;48.32;100406.63;5031974;28;20051;-75
2021/07/28 02:44:40;;;;;;;15.52;5.93;;;;;;;22.61;48.19;100400.25;5032074;28;20104;-75
2021/07/28 02:47:06;;;;;;;9.25;4.78;;;;;;;22.59;48.05;100404.59;5034277;28;20383;-74
2021/07/28 02:49:32;;;;;;;10.15;5.25;;;;;;;22.65;47.95;100400.22;5035777;28;20464;-74
2021/07/28 02:51:57;;;;;;;9.90;4.90;;;;;;;22.57;48.10;100399.44;5035618;28;20094;-75
2021/07/28 02:54:23;;;;;;;8.43;4.60;;;;;;;22.54;48.16;100400.25;5035570;28;20017;-75
2021/07/28 02:56:50;;;;;;;13.27;4.72;;;;;;;22.48;48.27;100398.28;5035542;28;20018;-75
2021/07/28 02:59:16;;;;;;;13.68;5.13;;;;;;;22.49;48.12;100391.53;5035562;28;20049;-74
2021/07/28 03:01:41;;;;;;;7.78;4.82;;;;;;;22.25;48.59;100393.19;5035339;28;20452;-74
2021/07/28 03:04:07;;;;;;;8.90;6.88;;;;;;;22.27;48.53;100386.00;5035412;28;20028;-74
2021/07/28 03:06:33;;;;;;;11.48;5.50;;;;;;;22.12;48.71;100381.66;5035305;28;20108;-76
2021/07/28 03:08:59;;;;;;;15.70;6.65;;;;;;;22.10;48.68;100378.50;5035382;28;20100;-74
2021/07/28 03:11:24;;;;;;;12.73;5.80;;;;;;;22.10;48.44;100382.06;5035242;28;20383;-77
2021/07/28 03:13:50;;;;;;;7.38;5.38;;;;;;;22.09;48.59;100377.72;5035394;28;20079;-74
2021/07/28 03:16:16;;;;;;;14.57;5.43;;;;;;;22.10;48.35;100376.50;5035170;28;20038;-75
2021/07/28 03:18:41;;;;;;;10.05;5.00;;;;;;;21.99;48.51;100375.72;5035225;28;20498;-75
2021/07/28 03:21:08;;;;;;;11.02;5.45;;;;;;;21.91;48.81;100376.09;5035028;28;20060;-74
2021/07/28 03:23:33;;;;;;;8.73;6.15;;;;;;;21.92;48.62;100381.28;5035186;28;20462;-75
2021/07/28 03:25:59;;;;;;;7.63;5.72;;;;;;;21.82;49.18;100382.06;5035028;28;20053;-74
2021/07/28 03:28:25;;;;;;;9.25;6.43;;;;;;;21.79;49.08;100377.31;5035020;28;20030;-75
2021/07/28 03:30:51;;;;;;;9.70;6.28;;;;;;;21.74;49.12;100372.13;5034900;28;20029;-74
2021/07/28 03:33:17;;;;;;;10.23;7.57;;;;;;;21.77;49.10;100363.00;5034830;28;20119;-74
2021/07/28 03:35:43;;;;;;;12.38;7.80;;;;;;;21.79;49.12;100368.97;5034818;28;20025;-74
2021/07/28 03:38:09;;;;;;;10.65;7.57;;;;;;;21.83;48.81;100362.19;5034472;28;20052;-75
2021/07/28 03:40:35;;;;;;;12.10;6.95;;;;;;;21.84;48.97;100365.78;5034727;28;20038;-74
2021/07/28 03:43:01;;;;;;;12.35;6.55;;;;;;;21.81;48.95;100363.78;5034589;28;20057;-74
2021/07/28 03:45:26;;;;;;;11.57;7.72;;;;;;;21.91;48.83;100359.41;5034678;28;20389;-76
2021/07/28 03:47:52;;;;;;;10.48;7.00;;;;;;;21.84;48.86;100351.88;5034653;28;20100;-80
2021/07/28 03:50:17;;;;;;;11.82;8.10;;;;;;;21.79;48.92;100355.06;5034589;28;20467;-74
2021/07/28 03:52:43;;;;;;;13.70;7.70;;;;;;;21.80;49.10;100356.66;5034546;28;20025;-75
2021/07/28 03:55:10;;;;;;;9.65;6.90;;;;;;;21.78;49.13;100354.28;5034449;28;20033;-75
2021/07/28 03:57:36;;;;;;;11.43;7.43;;;;;;;21.77;49.09;100352.69;5033961;28;20468;-76
2021/07/28 04:00:04;;;;;;;12.80;7.90;;;;;;;21.78;49.22;100353.47;5034443;28;20036;-74
2021/07/28 04:02:30;;;;;;;13.57;7.22;;;;;;;21.76;49.12;100362.19;5034201;28;20037;-74
2021/07/28 04:04:55;;;;;;;11.88;6.80;;;;;;;21.93;48.59;100349.50;5034218;28;20041;-75
2021/07/28 04:07:21;;;;;;;13.27;7.57;;;;;;;21.96;48.40;100351.47;5034285;28;20026;-75
2021/07/28 04:09:47;;;;;;;24.77;8.90;;;;;;;21.82;48.91;100343.13;5034219;28;20376;-75
2021/07/28 04:12:13;;;;;;;13.98;7.82;;;;;;;21.83;48.85;100347.50;5034096;28;20029;-75
2021/07/28 04:14:39;;;;;;;17.13;8.15;;;;;;;21.76;49.04;100341.94;5034114;28;20030;-74
2021/07/28 04:17:05;;;;;;;14.82;8.02;;;;;;;21.79;49.15;100339.16;5034040;28;20357;-76
2021/07/28 04:19:30;;;;;;;18.67;9.25;;;;;;;21.81;49.09;100322.06;5035578;28;20071;-77
2021/07/28 04:21:56;;;;;;;28.70;9.50;;;;;;;21.85;49.03;100331.22;5053658;28;20036;-75
2021/07/28 04:24:21;;;;;;;14.73;8.32;;;;;;;21.88;48.97;100328.44;5052700;28;20604;-75
2021/07/28 04:26:47;;;;;;;15.15;7.57;;;;;;;21.91;49.02;100323.25;5053403;28;20104;-75
2021/07/28 04:29:13;;;;;;;13.95;7.45;;;;;;;21.94;48.91;100317.69;5053716;28;20039;-75
2021/07/28 04:31:38;;;;;;;13.82;7.78;;;;;;;21.95;48.90;100316.50;5053630;28;20025;-74
2021/07/28 04:34:04;;;;;;;14.07;8.57;;;;;;;21.87;49.16;100317.72;5053619;28;20021;-75
2021/07/28 04:36:29;;;;;;;19.42;9.13;;;;;;;21.99;49.14;100320.06;5053553;28;20029;-75
2021/07/28 04:38:55;;;;;;;15.32;7.43;;;;;;;21.86;49.10;100319.69;5053317;28;20053;-74
2021/07/28 04:41:21;;;;;;;19.02;7.43;;;;;;;21.82;49.38;100313.34;5053403;28;20054;-75
2021/07/28 04:43:46;;;;;;;17.50;8.40;;;;;;;21.80;49.35;100317.72;5053488;28;20028;-75
2021/07/28 04:46:12;;;;;;;15.82;7.80;;;;;;;21.84;49.37;100336.00;5053414;28;20021;-74
2021/07/28 04:48:37;;;;;;;22.00;8.93;;;;;;;22.08;48.96;100316.91;5052115;28;20390;-74
2021/07/28 04:51:03;;;;;;;16.60;7.38;;;;;;;22.09;48.87;100301.78;5053271;28;20078;-75
2021/07/28 04:53:29;;;;;;;15.68;8.10;;;;;;;22.22;48.73;100311.31;5053153;28;20025;-74
2021/07/28 04:55:58;;;;;;;12.32;6.72;;;;;;;22.16;48.94;100310.13;5053222;28;20029;-74
2021/07/28 04:58:24;;;;;;;24.63;7.80;;;;;;;22.24;48.62;100311.69;5053198;28;20033;-74
2021/07/28 05:00:51;;;;;;;17.52;7.55;;;;;;;22.28;48.71;100300.53;5051730;28;20444;-74
2021/07/28 05:03:18;;;;;;;15.38;7.47;;;;;;;22.27;48.68;100302.53;5053078;28;20029;-74
2021/07/28 05:05:44;;;;;;;15.63;7.38;;;;;;;22.36;48.46;100293.72;5052985;28;20035;-74
2021/07/28 05:08:10;;;;;;;18.77;10.07;;;;;;;22.37;48.64;100287.78;5051393;28;20031;-75
2021/07/28 05:10:36;;;;;;;17.98;7.63;;;;;;;22.38;48.57;100281.03;5052527;28;20048;-73
2021/07/28 05:13:02;;;;;;;14.52;6.80;;;;;;;22.40;48.52;100286.19;5053006;28;20568;-74
2021/07/28 05:15:28;;;;;;;14.80;7.00;;;;;;;22.37;48.66;100278.66;5051555;28;20051;-75
2021/07/28 05:17:54;;;;;;;22.27;7.35;;;;;;;22.39;48.40;100279.03;5052863;28;20521;-75
2021/07/28 05:20:20;;;;;;;10.40;6.25;;;;;;;22.39;48.47;100285.38;5052829;28;20108;-75
2021/07/28 05:22:46;;;;;;;18.67;7.25;;;;;;;22.32;48.67;100277.06;5051426;28;20033;-75
2021/07/28 05:25:13;;;;;;;16.48;6.97;;;;;;;22.34;48.92;100279.44;5052727;28;20025;-74
2021/07/28 05:27:39;;;;;;;14.00;6.10;;;;;;;22.50;48.46;100276.19;5052669;28;20036;-75
2021/07/28 05:30:05;;;;;;;16.40;5.82;;;;;;;22.54;48.28;100272.19;5052644;28;20029;-75
2021/07/28 05:32:31;;;;;;;11.65;6.32;;;;;;;22.55;48.41;100267.41;5052569;28;20369;-75
2021/07/28 05:34:56;;;;;;;11.43;5.63;;;;;;;22.64;48.05;100268.56;5052564;28;20087;-75
2021/07/28 05:37:24;;;;;;;11.48;6.38;;;;;;;22.68;48.35;100274.13;5052340;28;20083;-77
2021/07/28 05:39:50;;;;;;;14.00;5.85;;;;;;;22.74;48.22;100271.66;5052570;28;20059;-74
2021/07/28 05:42:15;;;;;;;11.48;6.03;;;;;;;22.76;48.27;100264.50;5052411;28;20069;-75
2021/07/28 05:44:41;;;;;;;11.63;5.65;;;;;;;22.70;48.36;100268.94;5052465;28;20450;-75
2021/07/28 05:47:07;;;;;;;10.13;6.30;;;;;;;22.68;48.20;100269.34;5052467;28;20108;-78
2021/07/28 05:49:33;;;;;;;10.50;5.93;;;;;;;22.50;48.66;100265.84;5052417;28;20086;-78
2021/07/28 05:51:59;;;;;;;12.75;6.40;;;;;;;22.64;48.35;100260.19;5052421;28;20069;-74
2021/07/28 05:54:24;;;;;;;12.45;5.90;;;;;;;22.70;48.75;100271.72;5051092;28;20048;-74
2021/07/28 05:56:50;;;;;;;12.38;6.80;;;;;;;22.63;48.58;100264.19;5052220;28;20025;-74
2021/07/28 05:59:16;;;;;;;13.52;5.32;;;;;;;22.76;48.70;100270.09;5049382;28;20112;-75
2021/07/28 06:01:41;;;;;;;8.00;4.55;;;;;;;22.87;48.44;100261.69;5035253;28;20030;-75
2021/07/28 06:04:07;;;;;;;11.57;5.18;;;;;;;22.85;48.44;100270.44;5033662;28;20087;-75
2021/07/28 06:06:32;;;;;;;11.68;5.13;;;;;;;22.95;48.45;100258.44;5032279;28;20464;-74
2021/07/28 06:08:58;;;;;;;14.10;5.22;;;;;;;23.01;48.55;100258.00;5032358;28;20025;-76
2021/07/28 06:11:24;;;;;;;10.85;5.82;;;;;;;23.03;48.63;100264.75;5032420;28;20030;-75
2021/07/28 06:13:50;;;;;;;10.60;5.68;;;;;;;23.09;48.63;100265.13;5032258;28;20056;-75
2021/07/28 06:16:16;;;;;;;8.65;4.30;;;;;;;23.13;48.73;100260.31;5032181;28;20117;-74
2021/07/28 06:18:41;;;;;;;9.35;4.38;;;;;;;23.09;48.99;100254.75;5032210;28;20439;-75
2021/07/28 06:21:07;;;;;;;7.53;4.60;;;;;;;23.14;49.23;100254.31;5034513;28;20033;-74
2021/07/28 06:23:33;;;;;;;10.82;5.43;;;;;;;22.97;49.14;100258.03;5036169;28;20104;-75
2021/07/28 06:25:58;;;;;;;9.40;5.43;;;;;;;23.17;48.79;100259.06;5036085;28;20029;-75
2021/07/28 06:28:26;;;;;;;10.07;5.47;;;;;;;23.26;48.59;100262.19;5034527;28;20071;-77
2021/07/28 06:30:52;;;;;;;8.30;4.72;;;;;;;23.15;48.65;100252.34;5036113;28;20064;-77
2021/07/28 06:33:18;;;;;;;18.50;5.57;;;;;;;23.15;48.55;100250.34;5034669;28;20026;-78
2021/07/28 06:35:46;;;;;;;12.50;5.50;;;;;;;23.15;48.72;100246.75;5035978;28;20033;-75
2021/07/28 06:38:12;;;;;;;8.15;4.80;;;;;;;23.11;48.92;100249.56;5034264;28;20073;-79
2021/07/28 06:40:38;;;;;;;10.90;4.78;;;;;;;23.08;48.92;100250.38;5035665;28;20053;-79
2021/07/28 06:43:03;;;;;;;11.00;4.95;;;;;;;23.10;48.91;100247.97;5035733;28;20042;-78
2021/07/28 06:45:29;;;;;;;7.03;4.43;;;;;;;22.93;49.43;100251.69;5034411;28;20116;-75
2021/07/28 06:47:54;;;;;;;12.65;5.80;;;;;;;22.91;49.33;100248.53;5034457;28;20056;-75
2021/07/28 06:50:20;;;;;;;6.35;4.20;;;;;;;23.00;49.33;100250.84;5035689;28;20064;-75
2021/07/28 06:52:46;;;;;;;13.35;4.80;;;;;;;22.94;49.44;100236.56;5034244;28;20021;-74
2021/07/28 06:55:12;;;;;;;11.43;5.18;;;;;;;23.04;49.22;100246.03;5035630;28;20036;-79
2021/07/28 06:57:38;;;;;;;9.70;6.20;;;;;;;23.00;49.35;100242.50;5034355;28;20034;-75
2021/07/28 07:00:05;;;;;;;7.45;4.50;;;;;;;22.94;49.38;100234.56;5035561;28;20376;-74
2021/07/28 07:02:32;;;;;;;8.88;4.47;;;;;;;22.96;49.65;100232.16;5035294;28;20050;-78
2021/07/28 07:04:57;;;;;;;13.18;5.78;;;;;;;22.96;49.46;100229.38;5034219;28;20176;-75
2021/07/28 07:07:23;;;;;;;8.13;4.88;;;;;;;22.98;49.48;100231.78;5035319;28;20121;-76
2021/07/28 07:09:51;;;;;;;9.13;4.90;;;;;;;22.98;49.58;100227.00;5035332;28;20494;-75
2021/07/28 07:12:20;;;;;;;8.23;4.57;;;;;;;23.00;49.88;100223.78;5035184;28;20029;-75
2021/07/28 07:14:46;;;;;;;9.50;4.35;;;;;;;23.09;49.58;100217.75;5035206;28;20147;-74
2021/07/28 07:17:12;;;;;;;5.18;4.32;;;;;;;23.02;49.47;100223.38;5035141;28;20104;-75
2021/07/28 07:19:38;;;;;;;6.97;4.40;;;;;;;23.11;49.11;100218.91;5034975;28;20094;-74
2021/07/28 07:22:04;;;;;;;10.00;5.38;;;;;;;22.99;50.22;100213.84;5033813;28;20029;-75
2021/07/28 07:24:30;;;;;;;10.57;4.80;;;;;;;23.14;49.41;100220.88;5032400;28;20155;-77
2021/07/28 07:26:55;;;;;;;10.95;4.18;;;;;;;23.09;49.67;100218.53;5050341;28;20091;-74
2021/07/28 07:29:21;;;;;;;10.18;4.85;;;;;;;23.10;49.48;100214.53;5054244;28;20017;-79
2021/07/28 07:31:47;;;;;;;7.95;4.55;;;;;;;23.14;49.54;100215.31;5053992;28;20467;-74
2021/07/28 07:34:12;;;;;;;4.40;4.00;;;;;;;23.10;49.51;100211.75;5054829;28;20032;-77
2021/07/28 07:36:38;;;;;;;5.70;4.25;;;;;;;23.13;49.46;100213.72;5054703;28;20025;-77
2021/07/28 07:39:04;;;;;;;9.27;4.22;;;;;;;23.24;49.45;100203.28;5047963;28;20045;-73
2021/07/28 07:41:31;;;;;;;8.20;4.85;;;;;;;23.27;49.31;100204.44;5034316;28;20041;-78
2021/07/28 07:44:00;;;;;;;5.70;3.90;;;;;;;23.25;49.88;100209.63;5033126;28;20036;-78
2021/07/28 07:46:26;;;;;;;6.57;4.00;;;;;;;23.09;49.94;100204.59;5029828;28;20037;-76
2021/07/28 07:48:52;;;;;;;6.72;3.90;;;;;;;23.18;49.69;100199.34;5049771;28;20036;-78
2021/07/28 07:51:18;;;;;;;6.35;4.13;;;;;;;23.09;50.11;100198.25;5034422;28;20609;-74
2021/07/28 07:53:44;;;;;;;8.35;4.53;;;;;;;23.22;49.90;100205.69;5031453;28;20120;-74
2021/07/28 07:56:09;;;;;;;6.65;4.40;;;;;;;23.32;49.85;100203.22;5033055;28;20036;-75
2021/07/28 07:58:35;;;;;;;8.88;4.35;;;;;;;23.43;49.69;100206.69;5034343;28;20108;-74
2021/07/28 08:01:08;;;;;;;6.97;4.03;;;;;;;23.06;50.47;100194.28;5034135;28;20117;-75
2021/07/28 08:03:34;;;;;;;9.55;3.60;;;;;;;23.19;50.32;100186.19;5032976;28;20043;-76
2021/07/28 08:05:59;;;;;;;5.80;3.85;;;;;;;23.15;50.20;100194.59;5034232;28;20446;-75
2021/07/28 08:08:25;;;;;;;5.68;3.95;;;;;;;23.30;50.03;100195.25;5034367;28;20026;-75
2021/07/28 08:10:51;;;;;;;5.00;3.40;;;;;;;23.35;49.74;100186.47;5033848;28;20495;-74
2021/07/28 08:13:16;;;;;;;5.43;2.95;;;;;;;23.30;49.87;100192.47;5033973;28;20104;-76
2021/07/28 08:15:42;;;;;;;8.23;4.28;;;;;;;23.33;49.77;100186.06;5034147;28;20041;-74
2021/07/28 08:18:09;;;;;;;5.45;3.50;;;;;;;23.31;49.95;100190.47;5034275;28;20072;-85
2021/07/28 08:20:36;;;;;;;4.75;3.42;;;;;;;23.26;50.42;100188.91;5035911;28;20140;-81
2021/07/28 08:23:01;;;;;;;4.90;3.35;;;;;;;23.22;50.59;100180.59;5036109;28;20025;-85
2021/07/28 08:25:27;;;;;;;8.63;4.43;;;;;;;23.31;50.36;100182.91;5032357;28;20033;-83
2021/07/28 08:27:53;;;;;;;4.45;2.97;;;;;;;23.28;50.71;100175.38;5036407;28;20064;-75
2021/07/28 08:30:18;;;;;;;4.07;2.88;;;;;;;23.40;50.01;100176.84;5036946;28;21537;-77
2021/07/28 08:32:44;;;;;;;4.57;2.67;;;;;;;23.38;49.74;100179.25;5038260;28;20454;-75
2021/07/28 08:35:10;;;;;;;4.85;2.85;;;;;;;23.44;49.45;100183.19;5033266;28;20117;-75
2021/07/28 08:37:40;;;;;;;4.13;3.25;;;;;;;23.53;49.46;100173.13;5033516;28;20029;-84
2021/07/28 08:40:12;;;;;;;5.20;3.08;;;;;;;23.37;49.51;100178.47;5033598;28;20021;-75
2021/07/28 08:42:39;;;;;;;6.65;3.58;;;;;;;23.55;49.26;100178.28;5032171;28;20550;-79
2021/07/28 08:45:06;;;;;;;6.45;3.58;;;;;;;23.60;48.75;100172.28;5033412;28;20025;-74
2021/07/28 08:47:33;;;;;;;3.55;3.17;;;;;;;23.59;48.69;100162.31;5033621;28;20041;-77
2021/07/28 08:49:59;;;;;;;5.43;3.30;;;;;;;23.66;49.08;100167.06;5035828;28;20025;-73
2021/07/28 08:52:26;;;;;;;4.40;2.85;;;;;;;23.61;48.79;100162.72;5049653;28;20498;-74
2021/07/28 08:54:51;;;;;;;5.05;2.55;;;;;;;23.68;48.59;100165.41;5052019;28;20494;-75
2021/07/28 08:57:17;;;;;;;4.93;2.72;;;;;;;23.69;48.63;100161.41;5050517;28;20025;-75
2021/07/28 08:59:43;;;;;;;6.60;2.90;;;;;;;23.62;48.45;100161.50;5052750;28;20494;-76
2021/07/28 09:02:08;;;;;;;5.38;2.88;;;;;;;23.68;48.74;100159.84;5053040;28;20021;-77
2021/07/28 09:04:34;;;;;;;6.03;2.63;;;;;;;23.71;48.18;100159.00;5051734;28;20028;-74
2021/07/28 09:07:11;;;;;;;5.93;2.58;;;;;;;23.57;49.06;100161.91;5052677;28;20025;-77
2021/07/28 09:09:54;;;;;;;6.35;3.10;;;;;;;23.53;48.77;100158.38;5051548;28;20090;-79
2021/07/28 09:12:29;;;;;;;3.88;2.17;;;;;;;23.51;48.96;100152.44;5051554;28;20029;-73
2021/07/28 09:14:59;;;;;;;4.40;3.50;;;;;;;23.80;48.14;100145.34;5052906;28;20028;-73
2021/07/28 09:17:28;;;;;;;3.97;2.00;;;;;;;23.57;49.51;100141.59;5052717;28;20029;-72
2021/07/28 09:19:56;;;;;;;5.65;2.10;;;;;;;24.25;47.76;100136.75;5044955;28;20040;-73
2021/07/28 09:22:22;;;;;;;3.95;2.00;;;;;;;24.35;47.42;100129.50;5032702;28;20151;-73
2021/07/28 09:25:33;;;;;;;3.25;2.17;;;;;;;24.29;47.97;100126.34;5032687;28;20030;-74
2021/07/28 09:27:57;;;;;;;4.32;1.65;;;;;;;24.55;47.50;100133.16;5051763;28;20041;-82
2021/07/28 09:30:23;;;;;;;4.00;1.75;;;;;;;25.01;46.51;100131.59;5052695;28;20086;-74
2021/07/28 09:33:06;;;;;;;3.47;1.30;;;;;;;24.67;46.77;100128.19;5044957;28;20041;-74
2021/07/28 09:35:46;;;;;;;4.90;1.95;;;;;;;25.16;44.94;100123.78;5034102;28;20036;-74
2021/07/28 09:38:48;;;;;;;14.43;2.60;;;;;;;24.80;44.48;100127.19;5051060;28;20640;-74
2021/07/28 09:41:28;;;;;;;2.78;1.40;;;;;;;25.27;44.12;100121.59;5052838;28;20037;-74
2021/07/28 09:43:58;;;;;;;1.73;1.10;;;;;;;25.26;43.49;100120.00;5037526;28;20107;-76
2021/07/28 09:46:30;;;;;;;7.30;1.60;;;;;;;25.34;43.74;100109.47;5029299;28;20555;-75
2021/07/28 09:48:58;;;;;;;2.25;1.20;;;;;;;25.28;43.95;100123.16;5039463;28;20112;-75
2021/07/28 09:51:32;;;;;;;8.18;1.90;;;;;;;25.46;42.81;100120.78;5034425;28;20029;-75
2021/07/28 09:54:00;;;;;;;1.75;1.10;;;;;;;25.55;42.65;100134.22;5030664;28;20060;-86
2021/07/28 09:56:44;;;;;;;7.78;1.23;;;;;;;25.48;42.28;100137.16;5030048;28;20021;-74
2021/07/28 09:59:10;;;;;;;1.25;0.90;;;;;;;25.53;41.80;100133.06;5029985;28;20092;-89
2021/07/28 10:01:36;;;;;;;11.30;2.08;;;;;;;25.19;41.63;100139.72;5048084;28;20523;-74
2021/07/28 10:04:05;;;;;;;3.03;0.82;;;;;;;24.98;41.58;100138.03;5050388;28;20028;-74
2021/07/28 10:06:43;;;;;;;3.40;1.00;;;;;;;24.72;41.50;100147.28;5045165;28;20060;-74
2021/07/28 10:09:16;;;;;;;2.42;1.20;;;;;;;24.81;41.63;100148.31;5034307;28;20096;-74
2021/07/28 10:11:46;;;;;;;1.98;0.95;;;;;;;24.29;43.00;100147.91;5036881;28;20021;-80
2021/07/28 10:14:14;;;;;;;;;;;;;;;24.32;43.16;100159.03;5018156;28;20037;-75
2021/07/28 10:16:39;;;;;;;7.57;0.93;;;;;;;24.42;42.98;100164.91;5036842;28;19920;-75
2021/07/28 10:19:05;;;;;;;0.82;0.73;;;;;;;24.33;43.42;100143.88;5035119;28;20025;-82
2021/07/28 10:21:33;;;;;;;3.33;1.08;;;;;;;24.44;43.52;100163.25;5035766;28;20139;-82
2021/07/28 10:23:59;;;;;;;2.10;1.08;;;;;;;24.47;43.82;100159.59;5030638;28;20025;-74
2021/07/28 10:26:25;;;;;;;3.38;0.98;;;;;;;24.57;43.72;100160.69;5025889;28;20119;-81
2021/07/28 10:28:51;;;;;;;5.45;1.10;;;;;;;24.50;44.38;100153.19;5035590;28;20117;-81
2021/07/28 10:31:19;;;;;;;4.18;1.10;;;;;;;24.50;44.25;100149.63;5032875;28;20033;-77
2021/07/28 10:33:52;;;;;;;3.75;1.50;;;;;;;24.33;44.30;100151.44;5028949;28;20037;-80
2021/07/28 10:36:19;;;;;;;10.65;2.10;;;;;;;24.44;44.21;100165.25;5022828;28;20032;-77
2021/07/28 10:38:54;;;;;;;6.40;1.35;;;;;;;24.20;44.29;100147.63;5032856;28;20052;-84
2021/07/28 10:41:38;;;;;;;8.65;2.00;;;;;;;24.16;44.44;100139.28;5032379;28;21856;-77
2021/07/28 10:44:11;;;;;;;10.90;2.80;;;;;;;24.24;44.01;100137.97;5034246;28;20470;-72
2021/07/28 10:46:52;;;;;;;5.32;1.50;;;;;;;24.50;44.09;100133.66;5033364;28;20051;-74
2021/07/28 10:49:34;;;;;;;6.30;1.70;;;;;;;24.61;43.79;100136.25;5020610;28;20601;-74
2021/07/28 10:52:00;;;;;;;3.95;1.55;;;;;;;24.93;43.27;100132.94;5016033;28;20034;-73
2021/07/28 10:57:34;;;;;;;1.75;1.17;;;;;;;25.07;42.96;100126.34;5051847;28;20041;-75
2021/07/28 11:00:04;;;;;;;4.88;1.70;;;;;;;25.29;43.00;100135.13;5051680;28;20509;-73
2021/07/28 11:02:55;;;;;;;4.93;1.23;;;;;;;25.45;42.72;100144.38;5050801;28;20044;-73
2021/07/28 11:05:34;;;;;;;3.30;1.13;;;;;;;25.81;42.14;100143.72;5052685;28;20441;-74
2021/07/28 11:08:02;;;;;;;7.53;1.45;;;;;;;25.47;42.21;100146.78;5054246;28;20028;-73
2021/07/28 11:10:32;;;;;;;13.45;1.85;;;;;;;24.70;44.62;100160.88;5053121;28;20059;-74
2021/07/28 11:12:59;;;;;;;3.83;1.55;;;;;;;24.56;44.24;100156.28;5035363;28;20387;-73
2021/07/28 11:15:25;;;;;;;9.95;2.10;;;;;;;24.18;45.29;100175.16;5035270;28;20087;-79
2021/07/28 11:17:55;;;;;;;6.32;2.08;;;;;;;23.98;43.98;100172.22;5035127;28;20021;-74
2021/07/28 11:20:30;;;;;;;6.00;2.00;;;;;;;23.73;44.62;100175.34;5033484;28;20112;-85
2021/07/28 11:23:24;;;;;;;12.10;2.35;;;;;;;23.45;45.03;100187.56;5035128;28;20415;-74
2021/07/28 11:25:51;;;;;;;8.32;2.20;;;;;;;23.41;45.86;100181.22;5035428;28;20026;-84
2021/07/28 11:28:19;;;;;;;4.70;1.55;;;;;;;23.48;45.36;100181.94;5035308;28;20056;-87